sensor_id;sensor_type;location;lat;lon;timestamp;P1;durP1;ratioP1;P2;durP2;ratioP2
47749;SDS011;49810;48.160;10.812;2023-04-25T00:01:17;7.25;;;4.53;;
47749;SDS011;49810;48.160;10.812;2023-04-25T00:03:47;6.97;;;4.78;;
47749;SDS011;49810;48.160;10.812;2023-04-25T00:06:15;10.75;;;4.90;;
47749;SDS011;49810;48.160;10.812;2023-04-25T00:08:44;8.40;;;5.13;;
47749;SDS011;49810;48.160;10.812;2023-04-25T00:11:12;7.03;;;4.90;;
47749;SDS011;49810;48.160;10.812;2023-04-25T00:13:39;8.65;;;4.63;;
47749;SDS011;49810;48.160;10.812;2023-04-25T00:16:08;9.48;;;5.03;;
47749;SDS011;49810;48.160;10.812;2023-04-25T00:18:37;8.38;;;4.68;;
47749;SDS011;49810;48.160;10.812;2023-04-25T00:21:06;9.07;;;4.85;;
47749;SDS011;49810;48.160;10.812;2023-04-25T00:23:34;8.18;;;4.90;;
47749;SDS011;49810;48.160;10.812;2023-04-25T00:26:03;9.02;;;5.05;;
47749;SDS011;49810;48.160;10.812;2023-04-25T00:28:31;8.43;;;4.82;;
47749;SDS011;49810;48.160;10.812;2023-04-25T00:30:59;8.95;;;4.82;;
47749;SDS011;49810;48.160;10.812;2023-04-25T00:33:27;7.15;;;4.50;;
47749;SDS011;49810;48.160;10.812;2023-04-25T00:35:55;8.55;;;4.93;;
47749;SDS011;49810;48.160;10.812;2023-04-25T00:38:25;8.77;;;4.50;;
47749;SDS011;49810;48.160;10.812;2023-04-25T00:40:52;6.70;;;4.30;;
47749;SDS011;49810;48.160;10.812;2023-04-25T00:43:22;8.10;;;4.30;;
47749;SDS011;49810;48.160;10.812;2023-04-25T00:45:50;9.27;;;4.82;;
47749;SDS011;49810;48.160;10.812;2023-04-25T00:48:20;10.63;;;5.25;;
47749;SDS011;49810;48.160;10.812;2023-04-25T00:50:51;8.38;;;4.95;;
47749;SDS011;49810;48.160;10.812;2023-04-25T00:53:19;10.85;;;4.93;;
47749;SDS011;49810;48.160;10.812;2023-04-25T00:55:49;10.18;;;5.43;;
47749;SDS011;49810;48.160;10.812;2023-04-25T00:58:17;8.73;;;4.63;;
47749;SDS011;49810;48.160;10.812;2023-04-25T01:00:45;6.90;;;4.78;;
47749;SDS011;49810;48.160;10.812;2023-04-25T01:03:14;9.07;;;4.25;;
47749;SDS011;49810;48.160;10.812;2023-04-25T01:05:44;8.30;;;5.05;;
47749;SDS011;49810;48.160;10.812;2023-04-25T01:08:12;8.43;;;5.10;;
47749;SDS011;49810;48.160;10.812;2023-04-25T01:10:39;9.57;;;4.85;;
47749;SDS011;49810;48.160;10.812;2023-04-25T01:13:09;10.43;;;5.20;;
47749;SDS011;49810;48.160;10.812;2023-04-25T01:15:36;9.55;;;4.90;;
47749;SDS011;49810;48.160;10.812;2023-04-25T01:18:05;7.68;;;5.13;;
47749;SDS011;49810;48.160;10.812;2023-04-25T01:20:33;10.35;;;5.38;;
47749;SDS011;49810;48.160;10.812;2023-04-25T01:23:02;10.35;;;5.10;;
47749;SDS011;49810;48.160;10.812;2023-04-25T01:25:31;8.95;;;4.75;;
47749;SDS011;49810;48.160;10.812;2023-04-25T01:27:59;7.43;;;4.63;;
47749;SDS011;49810;48.160;10.812;2023-04-25T01:30:27;9.40;;;4.68;;
47749;SDS011;49810;48.160;10.812;2023-04-25T01:32:56;9.38;;;5.03;;
47749;SDS011;49810;48.160;10.812;2023-04-25T01:35:24;8.13;;;4.57;;
47749;SDS011;49810;48.160;10.812;2023-04-25T01:37:54;8.30;;;4.78;;
47749;SDS011;49810;48.160;10.812;2023-04-25T01:40:24;11.07;;;5.15;;
47749;SDS011;49810;48.160;10.812;2023-04-25T01:42:52;13.40;;;4.82;;
47749;SDS011;49810;48.160;10.812;2023-04-25T01:45:20;8.25;;;4.85;;
47749;SDS011;49810;48.160;10.812;2023-04-25T01:47:50;7.55;;;4.28;;
47749;SDS011;49810;48.160;10.812;2023-04-25T01:50:18;11.45;;;5.28;;
47749;SDS011;49810;48.160;10.812;2023-04-25T01:52:47;7.18;;;4.90;;
47749;SDS011;49810;48.160;10.812;2023-04-25T01:55:16;7.47;;;4.75;;
47749;SDS011;49810;48.160;10.812;2023-04-25T01:58:01;10.68;;;4.68;;
47749;SDS011;49810;48.160;10.812;2023-04-25T02:00:49;11.15;;;4.70;;
47749;SDS011;49810;48.160;10.812;2023-04-25T02:03:17;6.38;;;4.35;;
47749;SDS011;49810;48.160;10.812;2023-04-25T02:05:45;8.43;;;4.28;;
47749;SDS011;49810;48.160;10.812;2023-04-25T02:08:13;8.25;;;4.30;;
47749;SDS011;49810;48.160;10.812;2023-04-25T02:10:41;6.53;;;4.38;;
47749;SDS011;49810;48.160;10.812;2023-04-25T02:13:15;7.45;;;3.47;;
47749;SDS011;49810;48.160;10.812;2023-04-25T02:16:19;12.10;;;4.28;;
47749;SDS011;49810;48.160;10.812;2023-04-25T02:18:47;8.05;;;3.60;;
47749;SDS011;49810;48.160;10.812;2023-04-25T02:21:15;6.25;;;3.20;;
47749;SDS011;49810;48.160;10.812;2023-04-25T02:23:42;10.32;;;4.18;;
47749;SDS011;49810;48.160;10.812;2023-04-25T02:26:12;8.63;;;3.50;;
47749;SDS011;49810;48.160;10.812;2023-04-25T02:28:42;4.95;;;3.20;;
47749;SDS011;49810;48.160;10.812;2023-04-25T02:31:10;7.82;;;3.33;;
47749;SDS011;49810;48.160;10.812;2023-04-25T02:33:38;5.30;;;2.28;;
47749;SDS011;49810;48.160;10.812;2023-04-25T02:36:06;4.70;;;2.53;;
47749;SDS011;49810;48.160;10.812;2023-04-25T02:38:34;6.22;;;2.83;;
47749;SDS011;49810;48.160;10.812;2023-04-25T02:41:03;7.00;;;2.38;;
47749;SDS011;49810;48.160;10.812;2023-04-25T02:43:31;7.00;;;2.65;;
47749;SDS011;49810;48.160;10.812;2023-04-25T02:46:01;5.30;;;2.15;;
47749;SDS011;49810;48.160;10.812;2023-04-25T02:48:29;6.32;;;2.30;;
47749;SDS011;49810;48.160;10.812;2023-04-25T02:50:57;5.68;;;2.00;;
47749;SDS011;49810;48.160;10.812;2023-04-25T02:53:25;4.68;;;2.67;;
47749;SDS011;49810;48.160;10.812;2023-04-25T02:55:53;4.63;;;2.22;;
47749;SDS011;49810;48.160;10.812;2023-04-25T02:58:21;5.97;;;2.70;;
47749;SDS011;49810;48.160;10.812;2023-04-25T03:00:51;5.28;;;2.33;;
47749;SDS011;49810;48.160;10.812;2023-04-25T03:03:20;4.50;;;2.63;;
47749;SDS011;49810;48.160;10.812;2023-04-25T03:05:50;6.78;;;2.90;;
47749;SDS011;49810;48.160;10.812;2023-04-25T03:08:26;5.85;;;2.95;;
47749;SDS011;49810;48.160;10.812;2023-04-25T03:10:59;5.97;;;2.90;;
47749;SDS011;49810;48.160;10.812;2023-04-25T03:13:27;6.68;;;2.65;;
47749;SDS011;49810;48.160;10.812;2023-04-25T03:15:56;5.53;;;2.78;;
47749;SDS011;49810;48.160;10.812;2023-04-25T03:18:26;5.07;;;2.88;;
47749;SDS011;49810;48.160;10.812;2023-04-25T03:20:55;8.50;;;3.17;;
47749;SDS011;49810;48.160;10.812;2023-04-25T03:23:23;8.32;;;2.90;;
47749;SDS011;49810;48.160;10.812;2023-04-25T03:25:51;5.68;;;2.88;;
47749;SDS011;49810;48.160;10.812;2023-04-25T03:28:18;10.05;;;2.65;;
47749;SDS011;49810;48.160;10.812;2023-04-25T03:30:47;6.10;;;2.70;;
47749;SDS011;49810;48.160;10.812;2023-04-25T03:33:15;6.90;;;3.03;;
47749;SDS011;49810;48.160;10.812;2023-04-25T03:35:44;5.95;;;3.35;;
47749;SDS011;49810;48.160;10.812;2023-04-25T03:38:12;7.82;;;2.90;;
47749;SDS011;49810;48.160;10.812;2023-04-25T03:40:40;10.30;;;3.67;;
47749;SDS011;49810;48.160;10.812;2023-04-25T03:43:19;5.65;;;3.03;;
47749;SDS011;49810;48.160;10.812;2023-04-25T03:45:53;9.43;;;2.97;;
47749;SDS011;49810;48.160;10.812;2023-04-25T03:48:22;8.50;;;3.40;;
47749;SDS011;49810;48.160;10.812;2023-04-25T03:50:54;9.88;;;3.38;;
47749;SDS011;49810;48.160;10.812;2023-04-25T03:53:22;6.55;;;3.20;;
47749;SDS011;49810;48.160;10.812;2023-04-25T03:56:08;5.85;;;3.10;;
47749;SDS011;49810;48.160;10.812;2023-04-25T03:58:38;9.02;;;3.78;;
47749;SDS011;49810;48.160;10.812;2023-04-25T04:01:06;6.80;;;3.90;;
47749;SDS011;49810;48.160;10.812;2023-04-25T04:03:37;6.82;;;3.00;;
47749;SDS011;49810;48.160;10.812;2023-04-25T04:06:07;5.25;;;3.25;;
47749;SDS011;49810;48.160;10.812;2023-04-25T04:08:38;10.50;;;3.15;;
47749;SDS011;49810;48.160;10.812;2023-04-25T04:11:07;11.45;;;3.55;;
47749;SDS011;49810;48.160;10.812;2023-04-25T04:13:36;6.38;;;3.58;;
47749;SDS011;49810;48.160;10.812;2023-04-25T04:16:05;9.35;;;4.00;;
47749;SDS011;49810;48.160;10.812;2023-04-25T04:18:33;6.82;;;3.72;;
47749;SDS011;49810;48.160;10.812;2023-04-25T04:21:01;6.55;;;4.10;;
47749;SDS011;49810;48.160;10.812;2023-04-25T04:23:33;10.07;;;4.75;;
47749;SDS011;49810;48.160;10.812;2023-04-25T04:26:04;9.23;;;4.20;;
47749;SDS011;49810;48.160;10.812;2023-04-25T04:28:43;9.32;;;4.55;;
47749;SDS011;49810;48.160;10.812;2023-04-25T04:31:32;9.07;;;4.25;;
47749;SDS011;49810;48.160;10.812;2023-04-25T04:34:00;8.23;;;4.22;;
47749;SDS011;49810;48.160;10.812;2023-04-25T04:36:29;7.07;;;4.13;;
47749;SDS011;49810;48.160;10.812;2023-04-25T04:38:58;10.60;;;4.00;;
47749;SDS011;49810;48.160;10.812;2023-04-25T04:41:36;8.82;;;4.72;;
47749;SDS011;49810;48.160;10.812;2023-04-25T04:44:11;9.38;;;4.80;;
47749;SDS011;49810;48.160;10.812;2023-04-25T04:46:59;6.82;;;4.28;;
47749;SDS011;49810;48.160;10.812;2023-04-25T04:49:57;10.18;;;5.95;;
47749;SDS011;49810;48.160;10.812;2023-04-25T04:52:41;10.45;;;6.40;;
47749;SDS011;49810;48.160;10.812;2023-04-25T04:55:29;11.60;;;6.22;;
47749;SDS011;49810;48.160;10.812;2023-04-25T04:58:19;10.85;;;6.25;;
47749;SDS011;49810;48.160;10.812;2023-04-25T05:01:01;15.60;;;7.10;;
47749;SDS011;49810;48.160;10.812;2023-04-25T05:03:41;13.13;;;7.28;;
47749;SDS011;49810;48.160;10.812;2023-04-25T05:06:23;17.70;;;7.20;;
47749;SDS011;49810;48.160;10.812;2023-04-25T05:09:27;14.73;;;7.47;;
47749;SDS011;49810;48.160;10.812;2023-04-25T05:12:10;14.13;;;8.40;;
47749;SDS011;49810;48.160;10.812;2023-04-25T05:14:59;16.45;;;8.98;;
47749;SDS011;49810;48.160;10.812;2023-04-25T05:17:36;17.50;;;8.75;;
47749;SDS011;49810;48.160;10.812;2023-04-25T05:20:15;16.15;;;8.98;;
47749;SDS011;49810;48.160;10.812;2023-04-25T05:23:05;15.15;;;7.93;;
47749;SDS011;49810;48.160;10.812;2023-04-25T05:25:53;14.45;;;8.20;;
47749;SDS011;49810;48.160;10.812;2023-04-25T05:28:32;17.15;;;8.27;;
47749;SDS011;49810;48.160;10.812;2023-04-25T05:31:24;12.20;;;7.40;;
47749;SDS011;49810;48.160;10.812;2023-04-25T05:33:58;16.00;;;8.40;;
47749;SDS011;49810;48.160;10.812;2023-04-25T05:36:37;14.73;;;8.05;;
47749;SDS011;49810;48.160;10.812;2023-04-25T05:39:07;17.13;;;8.38;;
47749;SDS011;49810;48.160;10.812;2023-04-25T05:42:04;14.20;;;8.35;;
47749;SDS011;49810;48.160;10.812;2023-04-25T05:44:55;13.15;;;6.55;;
47749;SDS011;49810;48.160;10.812;2023-04-25T05:47:55;11.80;;;6.75;;
47749;SDS011;49810;48.160;10.812;2023-04-25T05:50:37;18.40;;;7.72;;
47749;SDS011;49810;48.160;10.812;2023-04-25T05:56:01;12.50;;;6.93;;
47749;SDS011;49810;48.160;10.812;2023-04-25T05:58:31;11.70;;;5.68;;
47749;SDS011;49810;48.160;10.812;2023-04-25T06:01:01;13.98;;;6.40;;
47749;SDS011;49810;48.160;10.812;2023-04-25T06:03:29;13.65;;;7.35;;
47749;SDS011;49810;48.160;10.812;2023-04-25T06:05:58;9.02;;;6.18;;
47749;SDS011;49810;48.160;10.812;2023-04-25T06:08:26;11.98;;;5.50;;
47749;SDS011;49810;48.160;10.812;2023-04-25T06:10:54;12.05;;;6.03;;
47749;SDS011;49810;48.160;10.812;2023-04-25T06:13:22;10.35;;;6.10;;
47749;SDS011;49810;48.160;10.812;2023-04-25T06:15:50;9.15;;;5.55;;
47749;SDS011;49810;48.160;10.812;2023-04-25T06:18:19;7.35;;;4.65;;
47749;SDS011;49810;48.160;10.812;2023-04-25T06:20:51;10.80;;;4.55;;
47749;SDS011;49810;48.160;10.812;2023-04-25T06:23:19;7.75;;;4.53;;
47749;SDS011;49810;48.160;10.812;2023-04-25T06:25:59;9.48;;;4.55;;
47749;SDS011;49810;48.160;10.812;2023-04-25T06:28:28;8.15;;;4.38;;
47749;SDS011;49810;48.160;10.812;2023-04-25T06:30:58;9.70;;;4.22;;
47749;SDS011;49810;48.160;10.812;2023-04-25T06:33:29;7.75;;;4.60;;
47749;SDS011;49810;48.160;10.812;2023-04-25T06:35:57;11.43;;;3.88;;
47749;SDS011;49810;48.160;10.812;2023-04-25T06:38:27;7.50;;;3.88;;
47749;SDS011;49810;48.160;10.812;2023-04-25T06:40:57;8.48;;;3.90;;
47749;SDS011;49810;48.160;10.812;2023-04-25T06:43:29;8.13;;;4.07;;
47749;SDS011;49810;48.160;10.812;2023-04-25T06:46:16;9.25;;;3.03;;
47749;SDS011;49810;48.160;10.812;2023-04-25T06:48:47;8.63;;;3.88;;
47749;SDS011;49810;48.160;10.812;2023-04-25T06:51:17;9.05;;;4.00;;
47749;SDS011;49810;48.160;10.812;2023-04-25T06:53:49;8.65;;;3.60;;
47749;SDS011;49810;48.160;10.812;2023-04-25T06:56:25;10.93;;;4.07;;
47749;SDS011;49810;48.160;10.812;2023-04-25T06:59:00;10.40;;;4.07;;
47749;SDS011;49810;48.160;10.812;2023-04-25T07:01:31;7.80;;;3.58;;
47749;SDS011;49810;48.160;10.812;2023-04-25T07:04:04;7.82;;;3.40;;
47749;SDS011;49810;48.160;10.812;2023-04-25T07:06:35;14.15;;;3.90;;
47749;SDS011;49810;48.160;10.812;2023-04-25T07:09:04;7.75;;;4.07;;
47749;SDS011;49810;48.160;10.812;2023-04-25T07:11:32;8.15;;;3.97;;
47749;SDS011;49810;48.160;10.812;2023-04-25T07:14:00;8.27;;;4.15;;
47749;SDS011;49810;48.160;10.812;2023-04-25T07:16:28;7.68;;;4.40;;
47749;SDS011;49810;48.160;10.812;2023-04-25T07:18:57;8.48;;;4.10;;
47749;SDS011;49810;48.160;10.812;2023-04-25T07:21:27;9.68;;;4.15;;
47749;SDS011;49810;48.160;10.812;2023-04-25T07:23:55;9.48;;;3.75;;
47749;SDS011;49810;48.160;10.812;2023-04-25T07:26:28;10.20;;;3.97;;
47749;SDS011;49810;48.160;10.812;2023-04-25T07:31:41;7.25;;;3.30;;
47749;SDS011;49810;48.160;10.812;2023-04-25T07:34:09;8.65;;;3.45;;
47749;SDS011;49810;48.160;10.812;2023-04-25T07:36:39;9.65;;;3.67;;
47749;SDS011;49810;48.160;10.812;2023-04-25T07:39:07;8.57;;;3.42;;
47749;SDS011;49810;48.160;10.812;2023-04-25T07:41:36;10.13;;;3.40;;
47749;SDS011;49810;48.160;10.812;2023-04-25T07:44:04;8.77;;;2.90;;
47749;SDS011;49810;48.160;10.812;2023-04-25T07:46:33;8.85;;;2.95;;
47749;SDS011;49810;48.160;10.812;2023-04-25T07:49:06;5.35;;;2.58;;
47749;SDS011;49810;48.160;10.812;2023-04-25T07:51:35;7.40;;;3.33;;
47749;SDS011;49810;48.160;10.812;2023-04-25T07:54:09;8.15;;;3.25;;
47749;SDS011;49810;48.160;10.812;2023-04-25T07:56:42;4.70;;;2.55;;
47749;SDS011;49810;48.160;10.812;2023-04-25T07:59:19;5.70;;;2.60;;
47749;SDS011;49810;48.160;10.812;2023-04-25T08:01:48;5.50;;;2.50;;
47749;SDS011;49810;48.160;10.812;2023-04-25T08:04:18;7.05;;;2.63;;
47749;SDS011;49810;48.160;10.812;2023-04-25T08:06:56;7.40;;;2.70;;
47749;SDS011;49810;48.160;10.812;2023-04-25T08:09:29;5.70;;;2.42;;
47749;SDS011;49810;48.160;10.812;2023-04-25T08:12:03;5.82;;;2.60;;
47749;SDS011;49810;48.160;10.812;2023-04-25T08:14:35;5.55;;;2.55;;
47749;SDS011;49810;48.160;10.812;2023-04-25T08:17:04;9.38;;;3.00;;
47749;SDS011;49810;48.160;10.812;2023-04-25T08:19:38;6.57;;;2.72;;
47749;SDS011;49810;48.160;10.812;2023-04-25T08:22:15;4.78;;;2.28;;
47749;SDS011;49810;48.160;10.812;2023-04-25T08:24:52;6.22;;;2.45;;
47749;SDS011;49810;48.160;10.812;2023-04-25T08:27:21;6.18;;;2.83;;
47749;SDS011;49810;48.160;10.812;2023-04-25T08:29:50;6.68;;;2.33;;
47749;SDS011;49810;48.160;10.812;2023-04-25T08:32:19;6.55;;;2.85;;
47749;SDS011;49810;48.160;10.812;2023-04-25T08:35:16;5.65;;;2.63;;
47749;SDS011;49810;48.160;10.812;2023-04-25T08:37:44;5.97;;;2.13;;
47749;SDS011;49810;48.160;10.812;2023-04-25T08:40:15;5.78;;;2.30;;
47749;SDS011;49810;48.160;10.812;2023-04-25T08:42:54;3.35;;;1.85;;
47749;SDS011;49810;48.160;10.812;2023-04-25T08:45:22;5.60;;;2.50;;
47749;SDS011;49810;48.160;10.812;2023-04-25T08:47:51;5.72;;;2.15;;
47749;SDS011;49810;48.160;10.812;2023-04-25T08:50:21;5.30;;;2.45;;
47749;SDS011;49810;48.160;10.812;2023-04-25T08:52:50;5.65;;;2.00;;
47749;SDS011;49810;48.160;10.812;2023-04-25T08:55:21;4.78;;;2.53;;
47749;SDS011;49810;48.160;10.812;2023-04-25T08:57:53;7.05;;;3.00;;
47749;SDS011;49810;48.160;10.812;2023-04-25T09:00:22;7.03;;;2.70;;
47749;SDS011;49810;48.160;10.812;2023-04-25T09:02:50;10.98;;;3.88;;
47749;SDS011;49810;48.160;10.812;2023-04-25T09:05:19;13.25;;;3.92;;
47749;SDS011;49810;48.160;10.812;2023-04-25T09:07:51;11.13;;;3.97;;
47749;SDS011;49810;48.160;10.812;2023-04-25T09:10:19;9.73;;;4.20;;
47749;SDS011;49810;48.160;10.812;2023-04-25T09:15:47;7.22;;;4.53;;
47749;SDS011;49810;48.160;10.812;2023-04-25T09:18:37;8.50;;;3.53;;
47749;SDS011;49810;48.160;10.812;2023-04-25T09:21:05;8.90;;;3.70;;
47749;SDS011;49810;48.160;10.812;2023-04-25T09:23:41;7.78;;;3.33;;
47749;SDS011;49810;48.160;10.812;2023-04-25T09:26:09;7.05;;;2.95;;
47749;SDS011;49810;48.160;10.812;2023-04-25T09:28:37;8.88;;;3.05;;
47749;SDS011;49810;48.160;10.812;2023-04-25T09:31:07;7.60;;;3.00;;
47749;SDS011;49810;48.160;10.812;2023-04-25T09:33:43;8.93;;;2.88;;
47749;SDS011;49810;48.160;10.812;2023-04-25T09:36:12;6.90;;;3.10;;
47749;SDS011;49810;48.160;10.812;2023-04-25T09:38:52;8.15;;;3.08;;
47749;SDS011;49810;48.160;10.812;2023-04-25T09:41:27;4.97;;;2.45;;
47749;SDS011;49810;48.160;10.812;2023-04-25T09:43:58;5.40;;;2.05;;
47749;SDS011;49810;48.160;10.812;2023-04-25T09:46:34;3.75;;;2.15;;
47749;SDS011;49810;48.160;10.812;2023-04-25T09:49:12;4.55;;;1.90;;
47749;SDS011;49810;48.160;10.812;2023-04-25T09:51:55;5.35;;;2.33;;
47749;SDS011;49810;48.160;10.812;2023-04-25T09:54:28;3.72;;;2.03;;
47749;SDS011;49810;48.160;10.812;2023-04-25T09:57:08;3.88;;;2.17;;
47749;SDS011;49810;48.160;10.812;2023-04-25T09:59:38;5.50;;;1.83;;
47749;SDS011;49810;48.160;10.812;2023-04-25T10:02:08;4.18;;;1.63;;
47749;SDS011;49810;48.160;10.812;2023-04-25T10:04:38;3.10;;;1.35;;
47749;SDS011;49810;48.160;10.812;2023-04-25T10:07:14;5.40;;;1.52;;
47749;SDS011;49810;48.160;10.812;2023-04-25T10:09:44;4.05;;;1.85;;
47749;SDS011;49810;48.160;10.812;2023-04-25T10:12:14;3.63;;;1.73;;
47749;SDS011;49810;48.160;10.812;2023-04-25T10:14:42;3.65;;;1.70;;
47749;SDS011;49810;48.160;10.812;2023-04-25T10:17:12;6.53;;;1.60;;
47749;SDS011;49810;48.160;10.812;2023-04-25T10:19:39;4.28;;;1.77;;
47749;SDS011;49810;48.160;10.812;2023-04-25T10:22:08;4.13;;;1.70;;
47749;SDS011;49810;48.160;10.812;2023-04-25T10:24:39;4.38;;;1.70;;
47749;SDS011;49810;48.160;10.812;2023-04-25T10:27:07;2.83;;;1.50;;
47749;SDS011;49810;48.160;10.812;2023-04-25T10:29:35;7.80;;;2.20;;
47749;SDS011;49810;48.160;10.812;2023-04-25T10:32:04;5.18;;;2.00;;
47749;SDS011;49810;48.160;10.812;2023-04-25T10:34:40;7.30;;;2.33;;
47749;SDS011;49810;48.160;10.812;2023-04-25T10:37:08;5.63;;;1.88;;
47749;SDS011;49810;48.160;10.812;2023-04-25T10:39:38;4.60;;;1.88;;
47749;SDS011;49810;48.160;10.812;2023-04-25T10:42:06;4.55;;;2.05;;
47749;SDS011;49810;48.160;10.812;2023-04-25T10:44:34;4.80;;;2.22;;
47749;SDS011;49810;48.160;10.812;2023-04-25T10:47:05;4.30;;;2.20;;
47749;SDS011;49810;48.160;10.812;2023-04-25T10:49:34;5.57;;;2.45;;
47749;SDS011;49810;48.160;10.812;2023-04-25T10:52:13;6.18;;;2.60;;
47749;SDS011;49810;48.160;10.812;2023-04-25T10:54:42;4.97;;;2.22;;
47749;SDS011;49810;48.160;10.812;2023-04-25T10:57:29;6.18;;;2.50;;
47749;SDS011;49810;48.160;10.812;2023-04-25T10:59:58;3.53;;;2.10;;
47749;SDS011;49810;48.160;10.812;2023-04-25T11:02:27;4.90;;;2.00;;
47749;SDS011;49810;48.160;10.812;2023-04-25T11:04:55;6.00;;;1.88;;
47749;SDS011;49810;48.160;10.812;2023-04-25T11:07:29;2.88;;;1.50;;
47749;SDS011;49810;48.160;10.812;2023-04-25T11:12:27;4.55;;;1.77;;
47749;SDS011;49810;48.160;10.812;2023-04-25T11:15:00;3.90;;;1.80;;
47749;SDS011;49810;48.160;10.812;2023-04-25T11:17:29;2.30;;;1.25;;
47749;SDS011;49810;48.160;10.812;2023-04-25T11:19:57;3.45;;;1.90;;
47749;SDS011;49810;48.160;10.812;2023-04-25T11:22:28;4.07;;;1.30;;
47749;SDS011;49810;48.160;10.812;2023-04-25T11:24:58;3.50;;;1.60;;
47749;SDS011;49810;48.160;10.812;2023-04-25T11:27:27;2.50;;;1.48;;
47749;SDS011;49810;48.160;10.812;2023-04-25T11:29:55;2.53;;;1.20;;
47749;SDS011;49810;48.160;10.812;2023-04-25T11:32:23;3.03;;;1.50;;
47749;SDS011;49810;48.160;10.812;2023-04-25T11:34:53;3.95;;;1.70;;
47749;SDS011;49810;48.160;10.812;2023-04-25T11:37:21;1.95;;;1.20;;
47749;SDS011;49810;48.160;10.812;2023-04-25T11:39:51;3.10;;;1.05;;
47749;SDS011;49810;48.160;10.812;2023-04-25T11:42:19;3.05;;;1.00;;
47749;SDS011;49810;48.160;10.812;2023-04-25T11:44:47;1.92;;;1.00;;
47749;SDS011;49810;48.160;10.812;2023-04-25T11:47:15;3.60;;;1.23;;
47749;SDS011;49810;48.160;10.812;2023-04-25T11:49:43;2.78;;;1.40;;
47749;SDS011;49810;48.160;10.812;2023-04-25T11:52:11;2.78;;;1.20;;
47749;SDS011;49810;48.160;10.812;2023-04-25T11:54:39;2.33;;;1.33;;
47749;SDS011;49810;48.160;10.812;2023-04-25T11:57:09;1.83;;;1.05;;
47749;SDS011;49810;48.160;10.812;2023-04-25T11:59:36;4.47;;;1.42;;
47749;SDS011;49810;48.160;10.812;2023-04-25T12:02:04;3.22;;;1.60;;
47749;SDS011;49810;48.160;10.812;2023-04-25T12:04:33;2.53;;;1.70;;
47749;SDS011;49810;48.160;10.812;2023-04-25T12:07:02;4.88;;;1.80;;
47749;SDS011;49810;48.160;10.812;2023-04-25T12:09:30;3.60;;;1.95;;
47749;SDS011;49810;48.160;10.812;2023-04-25T12:11:59;5.10;;;2.20;;
47749;SDS011;49810;48.160;10.812;2023-04-25T12:14:31;3.35;;;2.10;;
47749;SDS011;49810;48.160;10.812;2023-04-25T12:17:00;3.75;;;2.45;;
47749;SDS011;49810;48.160;10.812;2023-04-25T12:19:31;2.63;;;1.80;;
47749;SDS011;49810;48.160;10.812;2023-04-25T12:22:00;4.30;;;1.95;;
47749;SDS011;49810;48.160;10.812;2023-04-25T12:24:29;2.65;;;1.48;;
47749;SDS011;49810;48.160;10.812;2023-04-25T12:27:05;3.20;;;1.80;;
47749;SDS011;49810;48.160;10.812;2023-04-25T12:29:36;2.78;;;1.65;;
47749;SDS011;49810;48.160;10.812;2023-04-25T12:32:15;2.42;;;1.45;;
47749;SDS011;49810;48.160;10.812;2023-04-25T12:34:43;2.10;;;1.30;;
47749;SDS011;49810;48.160;10.812;2023-04-25T12:37:11;2.35;;;1.40;;
47749;SDS011;49810;48.160;10.812;2023-04-25T12:39:39;2.03;;;0.98;;
47749;SDS011;49810;48.160;10.812;2023-04-25T12:42:07;1.85;;;1.10;;
47749;SDS011;49810;48.160;10.812;2023-04-25T12:44:39;1.63;;;1.00;;
47749;SDS011;49810;48.160;10.812;2023-04-25T12:47:08;2.28;;;0.88;;
47749;SDS011;49810;48.160;10.812;2023-04-25T12:49:36;1.58;;;1.17;;
47749;SDS011;49810;48.160;10.812;2023-04-25T12:52:04;2.15;;;1.45;;
47749;SDS011;49810;48.160;10.812;2023-04-25T12:54:32;1.30;;;0.73;;
47749;SDS011;49810;48.160;10.812;2023-04-25T12:57:00;1.50;;;0.80;;
47749;SDS011;49810;48.160;10.812;2023-04-25T12:59:29;3.08;;;1.23;;
47749;SDS011;49810;48.160;10.812;2023-04-25T13:01:58;2.70;;;1.40;;
47749;SDS011;49810;48.160;10.812;2023-04-25T13:04:26;2.60;;;1.70;;
47749;SDS011;49810;48.160;10.812;2023-04-25T13:06:55;3.60;;;1.90;;
47749;SDS011;49810;48.160;10.812;2023-04-25T13:09:23;2.63;;;1.58;;
47749;SDS011;49810;48.160;10.812;2023-04-25T13:11:51;2.70;;;1.50;;
47749;SDS011;49810;48.160;10.812;2023-04-25T13:14:23;2.58;;;1.48;;
47749;SDS011;49810;48.160;10.812;2023-04-25T13:16:51;1.35;;;0.90;;
47749;SDS011;49810;48.160;10.812;2023-04-25T13:19:21;2.55;;;1.70;;
47749;SDS011;49810;48.160;10.812;2023-04-25T13:21:48;1.80;;;1.08;;
47749;SDS011;49810;48.160;10.812;2023-04-25T13:24:17;4.57;;;2.45;;
47749;SDS011;49810;48.160;10.812;2023-04-25T13:26:45;2.70;;;1.45;;
47749;SDS011;49810;48.160;10.812;2023-04-25T13:29:12;4.78;;;2.78;;
47749;SDS011;49810;48.160;10.812;2023-04-25T13:31:40;3.20;;;1.85;;
47749;SDS011;49810;48.160;10.812;2023-04-25T13:34:08;2.03;;;1.40;;
47749;SDS011;49810;48.160;10.812;2023-04-25T13:36:38;2.90;;;1.40;;
47749;SDS011;49810;48.160;10.812;2023-04-25T13:39:05;10.38;;;6.22;;
47749;SDS011;49810;48.160;10.812;2023-04-25T13:41:33;6.70;;;3.53;;
47749;SDS011;49810;48.160;10.812;2023-04-25T13:44:01;2.83;;;1.10;;
47749;SDS011;49810;48.160;10.812;2023-04-25T13:46:30;2.58;;;1.45;;
47749;SDS011;49810;48.160;10.812;2023-04-25T13:49:12;3.08;;;1.70;;
47749;SDS011;49810;48.160;10.812;2023-04-25T13:51:42;1.98;;;1.20;;
47749;SDS011;49810;48.160;10.812;2023-04-25T13:54:10;4.13;;;2.50;;
47749;SDS011;49810;48.160;10.812;2023-04-25T13:56:38;2.83;;;1.02;;
47749;SDS011;49810;48.160;10.812;2023-04-25T13:59:08;1.50;;;0.90;;
47749;SDS011;49810;48.160;10.812;2023-04-25T14:01:36;7.07;;;4.00;;
47749;SDS011;49810;48.160;10.812;2023-04-25T14:04:05;8.88;;;2.92;;
47749;SDS011;49810;48.160;10.812;2023-04-25T14:06:33;8.35;;;4.25;;
47749;SDS011;49810;48.160;10.812;2023-04-25T14:09:03;5.50;;;2.95;;
47749;SDS011;49810;48.160;10.812;2023-04-25T14:11:33;3.75;;;2.00;;
47749;SDS011;49810;48.160;10.812;2023-04-25T14:14:01;4.63;;;2.88;;
47749;SDS011;49810;48.160;10.812;2023-04-25T14:16:29;8.98;;;6.05;;
47749;SDS011;49810;48.160;10.812;2023-04-25T14:18:58;5.55;;;3.70;;
47749;SDS011;49810;48.160;10.812;2023-04-25T14:21:26;2.85;;;1.95;;
47749;SDS011;49810;48.160;10.812;2023-04-25T14:23:54;2.28;;;1.40;;
47749;SDS011;49810;48.160;10.812;2023-04-25T14:26:24;2.17;;;1.58;;
47749;SDS011;49810;48.160;10.812;2023-04-25T14:28:52;2.17;;;1.33;;
47749;SDS011;49810;48.160;10.812;2023-04-25T14:31:20;3.65;;;1.98;;
47749;SDS011;49810;48.160;10.812;2023-04-25T14:33:48;5.35;;;2.95;;
47749;SDS011;49810;48.160;10.812;2023-04-25T14:36:17;2.75;;;1.70;;
47749;SDS011;49810;48.160;10.812;2023-04-25T14:38:45;7.97;;;2.65;;
47749;SDS011;49810;48.160;10.812;2023-04-25T14:41:13;2.72;;;1.52;;
47749;SDS011;49810;48.160;10.812;2023-04-25T14:43:42;6.20;;;4.25;;
47749;SDS011;49810;48.160;10.812;2023-04-25T14:46:11;2.50;;;1.50;;
47749;SDS011;49810;48.160;10.812;2023-04-25T14:48:39;3.45;;;1.92;;
47749;SDS011;49810;48.160;10.812;2023-04-25T14:51:07;2.40;;;1.60;;
47749;SDS011;49810;48.160;10.812;2023-04-25T14:53:35;3.42;;;1.88;;
47749;SDS011;49810;48.160;10.812;2023-04-25T14:56:04;3.40;;;2.00;;
47749;SDS011;49810;48.160;10.812;2023-04-25T14:58:32;3.45;;;2.20;;
47749;SDS011;49810;48.160;10.812;2023-04-25T15:01:01;4.60;;;2.72;;
47749;SDS011;49810;48.160;10.812;2023-04-25T15:03:29;5.72;;;2.88;;
47749;SDS011;49810;48.160;10.812;2023-04-25T15:05:57;5.57;;;3.20;;
47749;SDS011;49810;48.160;10.812;2023-04-25T15:08:24;4.90;;;2.70;;